createdAt,value
2023-04-07T00:02:20.522Z,16.33
2023-04-07T00:04:46.937Z,16.15
2023-04-07T00:07:13.407Z,16.50
2023-04-07T00:09:40.014Z,15.67
2023-04-07T00:12:06.947Z,14.23
2023-04-07T00:14:33.325Z,14.17
2023-04-07T00:16:59.618Z,13.27
2023-04-07T00:19:26.065Z,15.87
2023-04-07T00:21:55.954Z,15.83
2023-04-07T00:24:33.435Z,12.90
2023-04-07T00:27:01.071Z,14.57
2023-04-07T00:29:27.843Z,15.17
2023-04-07T00:31:54.647Z,13.93
2023-04-07T00:34:21.309Z,17.50
2023-04-07T00:36:52.121Z,13.07
2023-04-07T00:39:19.043Z,13.93
2023-04-07T00:41:45.972Z,14.27
2023-04-07T00:44:15.927Z,13.90
2023-04-07T00:46:42.323Z,14.43
2023-04-07T00:49:11.177Z,14.83
2023-04-07T00:51:39.919Z,16.67
2023-04-07T00:54:06.336Z,13.37
2023-04-07T00:56:33.010Z,11.70
2023-04-07T00:58:59.539Z,14.60
2023-04-07T01:01:27.979Z,11.77
2023-04-07T01:04:10.345Z,16.30
2023-04-07T01:06:38.791Z,12.20
2023-04-07T01:09:06.156Z,13.83
2023-04-07T01:11:41.874Z,29.43
2023-04-07T01:14:09.672Z,9.53
2023-04-07T01:16:39.647Z,11.53
2023-04-07T01:19:15.720Z,21.70
2023-04-07T01:21:43.964Z,11.83
2023-04-07T01:24:30.112Z,10.80
2023-04-07T01:27:00.784Z,10.67
2023-04-07T01:29:41.487Z,20.57
2023-04-07T01:32:10.110Z,11.63
2023-04-07T01:34:37.056Z,11.57
2023-04-07T01:37:03.887Z,10.97
2023-04-07T01:39:30.376Z,11.70
2023-04-07T01:41:57.827Z,10.13
2023-04-07T01:44:24.749Z,12.30
2023-04-07T01:46:51.282Z,11.40
2023-04-07T01:49:18.388Z,11.87
2023-04-07T01:51:50.029Z,9.67
2023-04-07T01:54:16.869Z,9.63
2023-04-07T01:56:44.090Z,9.30
2023-04-07T01:59:10.691Z,11.20
2023-04-07T02:01:37.419Z,13.67
2023-04-07T02:04:20.238Z,10.73
2023-04-07T02:06:54.550Z,10.00
2023-04-07T02:09:22.572Z,11.20
2023-04-07T02:11:49.860Z,11.27
2023-04-07T02:14:17.748Z,9.50
2023-04-07T02:16:47.504Z,10.77
2023-04-07T02:19:14.668Z,10.67
2023-04-07T02:21:42.042Z,9.17
2023-04-07T02:24:08.560Z,11.33
2023-04-07T02:26:36.064Z,9.93
2023-04-07T02:29:03.200Z,10.43
2023-04-07T02:31:29.611Z,9.93
2023-04-07T02:33:56.364Z,9.73
2023-04-07T02:36:22.815Z,9.67
2023-04-07T02:38:49.304Z,11.37
2023-04-07T02:41:15.865Z,10.07
2023-04-07T02:43:42.152Z,9.80
2023-04-07T02:46:08.587Z,10.10
2023-04-07T02:48:34.895Z,9.37
2023-04-07T02:51:01.221Z,10.53
2023-04-07T02:53:27.530Z,12.03
2023-04-07T02:55:53.817Z,9.40
2023-04-07T02:58:20.250Z,10.47
2023-04-07T03:00:49.063Z,10.43
2023-04-07T03:03:16.196Z,9.87
2023-04-07T03:05:42.602Z,8.17
2023-04-07T03:08:10.137Z,8.10
2023-04-07T03:10:37.919Z,8.70
2023-04-07T03:13:04.235Z,8.33
2023-04-07T03:15:30.598Z,9.13
2023-04-07T03:17:56.932Z,10.57
2023-04-07T03:20:23.481Z,10.57
2023-04-07T03:22:49.844Z,10.57
2023-04-07T03:25:16.215Z,10.50
2023-04-07T03:27:42.543Z,14.73
2023-04-07T03:30:09.124Z,11.83
2023-04-07T03:32:35.618Z,10.37
2023-04-07T03:35:01.968Z,11.53
2023-04-07T03:37:28.267Z,11.60
2023-04-07T03:39:54.542Z,13.07
2023-04-07T03:42:20.837Z,12.37
2023-04-07T03:44:47.321Z,11.50
2023-04-07T03:47:13.609Z,13.27
2023-04-07T03:49:39.969Z,12.60
2023-04-07T03:52:06.328Z,14.07
2023-04-07T03:54:35.286Z,12.87
2023-04-07T03:57:02.854Z,12.43
2023-04-07T03:59:29.148Z,11.17
2023-04-07T04:01:55.750Z,12.23
2023-04-07T04:04:24.345Z,13.57
2023-04-07T04:06:51.065Z,13.17
2023-04-07T04:09:17.562Z,12.57
2023-04-07T04:11:43.873Z,12.50
2023-04-07T04:14:10.292Z,14.13
2023-04-07T04:16:36.769Z,14.03
2023-04-07T04:19:03.263Z,12.77
2023-04-07T04:21:29.585Z,13.73
2023-04-07T04:23:55.918Z,11.40
2023-04-07T04:26:25.905Z,13.23
2023-04-07T04:28:52.964Z,11.77
2023-04-07T04:31:19.323Z,12.10
2023-04-07T04:33:46.262Z,13.50
2023-04-07T04:36:12.658Z,10.57
2023-04-07T04:38:39.037Z,12.50
2023-04-07T04:41:05.617Z,12.73
2023-04-07T04:43:31.975Z,12.20
2023-04-07T04:45:58.733Z,13.87
2023-04-07T04:48:25.027Z,13.70
2023-04-07T04:50:51.428Z,11.57
2023-04-07T04:53:17.820Z,13.70
2023-04-07T04:55:47.127Z,13.57
2023-04-07T04:58:13.482Z,11.80
2023-04-07T05:00:39.876Z,11.83
2023-04-07T05:03:06.507Z,12.63
2023-04-07T05:05:33.036Z,13.60
2023-04-07T05:07:59.348Z,13.67
2023-04-07T05:10:25.904Z,14.10
2023-04-07T05:12:52.297Z,12.40
2023-04-07T05:15:18.701Z,17.80
2023-04-07T05:17:50.323Z,15.07
2023-04-07T05:20:17.245Z,13.17
2023-04-07T05:22:43.548Z,12.67
2023-04-07T05:25:10.005Z,12.70
2023-04-07T05:27:36.296Z,14.27
2023-04-07T05:30:02.696Z,13.50
2023-04-07T05:32:29.435Z,13.00
2023-04-07T05:34:55.949Z,17.37
2023-04-07T05:37:22.263Z,15.10
2023-04-07T05:39:48.563Z,15.53
2023-04-07T05:42:15.071Z,15.80
2023-04-07T05:44:41.854Z,15.23
2023-04-07T05:47:09.158Z,15.90
2023-04-07T05:49:35.800Z,18.03
2023-04-07T05:52:03.498Z,18.00
2023-04-07T05:54:29.939Z,17.50
2023-04-07T05:56:56.413Z,18.50
2023-04-07T05:59:22.784Z,17.03
2023-04-07T06:01:49.533Z,17.27
2023-04-07T06:04:15.952Z,16.30
2023-04-07T06:06:42.274Z,15.87
2023-04-07T06:09:08.624Z,15.33
2023-04-07T06:11:34.911Z,29.67
2023-04-07T06:14:01.202Z,19.97
2023-04-07T06:16:27.832Z,23.03
2023-04-07T06:18:54.157Z,22.40
2023-04-07T06:21:20.652Z,15.20
2023-04-07T06:23:47.292Z,18.30
2023-04-07T06:26:13.920Z,15.40
2023-04-07T06:28:40.326Z,18.57
2023-04-07T06:31:07.220Z,15.97
2023-04-07T06:33:33.590Z,18.07
2023-04-07T06:35:59.913Z,17.27
2023-04-07T06:38:26.461Z,13.73
2023-04-07T06:40:52.846Z,16.63
2023-04-07T06:43:19.176Z,12.53
2023-04-07T06:45:45.601Z,14.33
2023-04-07T06:48:11.993Z,14.20
2023-04-07T06:50:41.295Z,13.98
2023-04-07T06:53:07.595Z,10.67
2023-04-07T06:55:33.950Z,17.63
2023-04-07T06:58:00.260Z,14.70
2023-04-07T07:00:30.102Z,17.40
2023-04-07T07:02:57.240Z,21.83
2023-04-07T07:05:23.759Z,45.50
2023-04-07T07:07:50.448Z,18.77
2023-04-07T07:10:16.786Z,19.33
2023-04-07T07:12:43.088Z,17.33
2023-04-07T07:15:09.598Z,20.63
2023-04-07T07:17:36.130Z,15.63
2023-04-07T07:20:02.461Z,26.33
2023-04-07T07:22:28.978Z,12.75
2023-04-07T07:24:55.301Z,33.28
2023-04-07T07:27:21.613Z,15.50
2023-04-07T07:29:47.899Z,20.00
2023-04-07T07:32:14.207Z,28.23
2023-04-07T07:34:40.537Z,38.90
2023-04-07T07:37:06.918Z,34.00
2023-04-07T07:39:33.245Z,39.83
2023-04-07T07:41:59.563Z,44.42
2023-04-07T07:44:25.947Z,45.92
2023-04-07T07:46:52.333Z,29.73
2023-04-07T07:49:18.638Z,48.80
2023-04-07T07:51:46.693Z,32.35
2023-04-07T07:54:13.251Z,49.57
2023-04-07T07:56:39.552Z,51.25
2023-04-07T07:59:08.794Z,35.45
2023-04-07T08:01:35.375Z,29.03
2023-04-07T08:04:01.823Z,30.30
2023-04-07T08:06:29.250Z,23.48
2023-04-07T08:08:55.970Z,39.85
2023-04-07T08:11:22.387Z,64.05
2023-04-07T08:13:48.830Z,30.93
2023-04-07T08:16:15.359Z,74.50
2023-04-07T08:18:42.751Z,52.38
2023-04-07T08:21:09.185Z,43.40
2023-04-07T08:23:35.790Z,68.68
2023-04-07T08:26:02.097Z,98.85
2023-04-07T08:28:28.442Z,70.05
2023-04-07T08:30:54.731Z,95.57
2023-04-07T08:33:22.102Z,103.38
2023-04-07T08:35:48.603Z,52.78
2023-04-07T08:38:14.977Z,70.32
2023-04-07T08:40:41.346Z,85.20
2023-04-07T08:43:08.814Z,105.60
2023-04-07T08:45:38.508Z,58.28
2023-04-07T08:48:07.382Z,79.95
2023-04-07T08:50:33.976Z,103.25
2023-04-07T08:53:01.978Z,80.97
2023-04-07T08:55:28.441Z,61.37
2023-04-07T08:57:55.040Z,94.22
2023-04-07T09:00:21.756Z,65.75
2023-04-07T09:02:49.406Z,123.28
2023-04-07T09:05:15.978Z,87.20
2023-04-07T09:07:45.161Z,65.05
2023-04-07T09:10:11.565Z,30.87
2023-04-07T09:12:38.319Z,26.13
2023-04-07T09:15:08.343Z,51.07
2023-04-07T09:17:34.721Z,70.07
2023-04-07T09:20:01.599Z,139.43
2023-04-07T09:22:35.225Z,117.57
2023-04-07T09:25:13.851Z,126.00
2023-04-07T09:27:40.251Z,46.58
2023-04-07T09:30:15.826Z,138.65
2023-04-07T09:32:42.286Z,78.75
2023-04-07T09:35:09.050Z,71.15
2023-04-07T09:37:35.678Z,55.25
2023-04-07T09:40:02.064Z,68.35
2023-04-07T09:42:32.302Z,59.65
2023-04-07T09:44:59.649Z,54.92
2023-04-07T09:47:29.305Z,59.28
2023-04-07T09:49:56.130Z,43.00
2023-04-07T09:52:23.495Z,91.68
2023-04-07T09:54:51.255Z,105.38
2023-04-07T09:57:18.632Z,49.67
2023-04-07T09:59:45.137Z,89.88
2023-04-07T10:02:12.520Z,134.05
2023-04-07T10:04:40.492Z,120.10
2023-04-07T10:07:06.920Z,71.40
2023-04-07T10:09:33.255Z,122.60
2023-04-07T10:11:59.916Z,117.03
2023-04-07T10:14:27.079Z,133.65
2023-04-07T10:16:53.526Z,125.13
2023-04-07T10:19:20.015Z,110.68
2023-04-07T10:21:48.211Z,119.65
2023-04-07T10:24:24.477Z,111.90
2023-04-07T10:26:53.054Z,95.25
2023-04-07T10:29:19.948Z,91.82
2023-04-07T10:31:46.616Z,122.53
2023-04-07T10:34:13.000Z,105.97
2023-04-07T10:36:57.738Z,75.55
2023-04-07T10:39:24.257Z,104.50
2023-04-07T10:41:51.832Z,136.43
2023-04-07T10:44:37.988Z,79.20
2023-04-07T10:47:05.772Z,102.38
2023-04-07T10:49:35.573Z,109.47
2023-04-07T10:52:28.155Z,100.07
2023-04-07T10:55:12.977Z,95.88
2023-04-07T10:57:59.223Z,106.85
2023-04-07T11:00:25.542Z,48.63
2023-04-07T11:02:51.971Z,96.07
2023-04-07T11:05:24.986Z,43.72
2023-04-07T11:07:54.902Z,71.90
2023-04-07T11:10:22.115Z,60.58
2023-04-07T11:12:58.629Z,66.32
2023-04-07T11:15:25.035Z,39.10
2023-04-07T11:18:09.851Z,36.22
2023-04-07T11:20:44.395Z,49.85
2023-04-07T11:23:12.531Z,59.97
2023-04-07T11:25:39.277Z,91.75
2023-04-07T11:28:05.627Z,52.13
2023-04-07T11:30:32.058Z,88.82
2023-04-07T11:32:58.546Z,51.28
2023-04-07T11:35:25.182Z,64.88
2023-04-07T11:37:57.583Z,87.43
2023-04-07T11:40:37.108Z,62.47
2023-04-07T11:43:15.032Z,103.07
2023-04-07T11:45:41.709Z,57.83
2023-04-07T11:48:26.832Z,73.35
2023-04-07T11:50:53.145Z,91.70
2023-04-07T11:53:46.379Z,56.75
2023-04-07T11:56:16.860Z,63.10
2023-04-07T11:58:53.499Z,81.25
2023-04-07T12:01:20.353Z,53.50
2023-04-07T12:03:57.209Z,9.00
2023-04-07T12:06:29.100Z,58.92
2023-04-07T12:08:55.429Z,48.38
2023-04-07T12:11:21.714Z,41.70
2023-04-07T12:13:48.208Z,64.28
2023-04-07T12:16:14.645Z,76.03
2023-04-07T12:18:40.985Z,99.18
2023-04-07T12:21:07.278Z,77.22
2023-04-07T12:23:33.568Z,43.97
2023-04-07T12:25:59.864Z,81.75
2023-04-07T12:28:26.530Z,98.43
2023-04-07T12:30:52.837Z,78.80
2023-04-07T12:33:19.173Z,55.58
2023-04-07T12:35:45.603Z,68.80
2023-04-07T12:38:12.329Z,57.42
2023-04-07T12:40:38.801Z,56.55
2023-04-07T12:43:05.900Z,38.45
2023-04-07T12:45:32.507Z,47.97
2023-04-07T12:47:59.316Z,39.95
2023-04-07T12:50:26.580Z,50.72
2023-04-07T12:52:53.689Z,35.22
2023-04-07T12:55:20.108Z,42.33
2023-04-07T12:57:47.206Z,39.30
2023-04-07T13:00:14.118Z,72.95
2023-04-07T13:02:41.594Z,59.38
2023-04-07T13:05:08.204Z,43.33
2023-04-07T13:07:36.270Z,82.00
2023-04-07T13:10:02.884Z,68.53
2023-04-07T13:12:29.189Z,51.38
2023-04-07T13:15:00.020Z,46.08
2023-04-07T13:17:27.024Z,57.90
2023-04-07T13:19:53.328Z,40.20
2023-04-07T13:22:22.080Z,36.40
2023-04-07T13:24:50.562Z,55.38
2023-04-07T13:27:16.837Z,53.15
2023-04-07T13:29:43.141Z,77.13
2023-04-07T13:32:10.436Z,83.97
2023-04-07T13:34:37.189Z,79.70
2023-04-07T13:37:04.387Z,79.38
2023-04-07T13:39:31.282Z,55.25
2023-04-07T13:41:57.889Z,36.65
2023-04-07T13:44:24.939Z,60.90
2023-04-07T13:46:51.261Z,29.27
2023-04-07T13:49:17.615Z,24.67
2023-04-07T13:51:43.912Z,29.80
2023-04-07T13:54:10.587Z,33.33
2023-04-07T13:56:38.456Z,32.40
2023-04-07T13:59:07.865Z,34.53
2023-04-07T14:01:35.577Z,33.38
2023-04-07T14:04:02.852Z,31.77
2023-04-07T14:06:29.328Z,31.30
2023-04-07T14:08:55.620Z,28.58
2023-04-07T14:11:22.548Z,24.15
2023-04-07T14:13:51.426Z,29.50
2023-04-07T14:16:18.060Z,46.08
2023-04-07T14:18:44.698Z,25.45
2023-04-07T14:21:11.150Z,32.92
2023-04-07T14:23:38.040Z,37.25
2023-04-07T14:26:04.447Z,28.27
2023-04-07T14:28:30.743Z,39.58
2023-04-07T14:30:57.088Z,31.27
2023-04-07T14:33:26.056Z,44.03
2023-04-07T14:35:52.818Z,36.00
2023-04-07T14:38:24.062Z,36.50
2023-04-07T14:40:50.485Z,39.08
2023-04-07T14:43:16.773Z,37.13
2023-04-07T14:45:43.062Z,53.38
2023-04-07T14:48:09.434Z,60.60
2023-04-07T14:50:35.780Z,40.13
2023-04-07T14:53:02.347Z,48.78
2023-04-07T14:55:29.027Z,51.30
2023-04-07T14:57:55.405Z,59.95
2023-04-07T15:00:21.753Z,58.42
2023-04-07T15:02:48.275Z,55.88
2023-04-07T15:05:14.744Z,42.83
2023-04-07T15:07:41.099Z,53.83
2023-04-07T15:10:07.597Z,28.17
2023-04-07T15:12:33.985Z,33.70
2023-04-07T15:15:00.484Z,25.63
2023-04-07T15:17:40.110Z,31.92
2023-04-07T15:20:09.587Z,25.90
2023-04-07T15:22:36.256Z,36.55
2023-04-07T15:25:05.802Z,33.63
2023-04-07T15:27:32.131Z,31.33
2023-04-07T15:29:58.814Z,65.90
2023-04-07T15:32:25.194Z,73.03
2023-04-07T15:34:51.472Z,40.47
2023-04-07T15:37:18.843Z,41.88
2023-04-07T15:39:45.435Z,30.95
2023-04-07T15:42:12.607Z,12.25
2023-04-07T15:44:39.795Z,14.18
2023-04-07T15:47:06.759Z,19.80
2023-04-07T15:49:33.358Z,13.30
2023-04-07T15:52:01.135Z,13.15
2023-04-07T15:54:27.454Z,14.30
2023-04-07T15:56:53.825Z,13.05
2023-04-07T15:59:20.118Z,15.73
2023-04-07T16:01:46.735Z,14.95
2023-04-07T16:04:13.261Z,14.45
2023-04-07T16:06:39.758Z,11.85
2023-04-07T16:09:06.055Z,11.40
2023-04-07T16:11:32.359Z,10.70
2023-04-07T16:13:58.663Z,13.25
2023-04-07T16:16:24.979Z,11.75
2023-04-07T16:18:51.869Z,12.32
2023-04-07T16:21:18.172Z,12.43
2023-04-07T16:23:44.455Z,11.55
2023-04-07T16:26:11.025Z,11.82
2023-04-07T16:28:39.159Z,14.00
2023-04-07T16:31:08.621Z,13.35
2023-04-07T16:33:35.642Z,15.80
2023-04-07T16:36:02.082Z,12.18
2023-04-07T16:38:29.102Z,15.75
2023-04-07T16:41:03.916Z,15.63
2023-04-07T16:43:30.932Z,13.48
2023-04-07T16:45:59.904Z,10.65
2023-04-07T16:48:26.550Z,12.52
2023-04-07T16:50:52.833Z,14.50
2023-04-07T16:53:21.199Z,14.73
2023-04-07T16:55:48.011Z,9.80
2023-04-07T16:58:18.654Z,13.13
2023-04-07T17:00:45.117Z,14.65
2023-04-07T17:03:13.119Z,11.57
2023-04-07T17:05:39.560Z,11.15
2023-04-07T17:08:05.863Z,16.77
2023-04-07T17:10:32.134Z,15.30
2023-04-07T17:12:58.424Z,23.48
2023-04-07T17:15:24.763Z,19.42
2023-04-07T17:17:51.313Z,18.63
2023-04-07T17:20:17.706Z,22.60
2023-04-07T17:22:44.604Z,27.00
2023-04-07T17:25:10.963Z,31.13
2023-04-07T17:27:37.269Z,23.27
2023-04-07T17:30:04.011Z,10.63
2023-04-07T17:32:30.407Z,29.63
2023-04-07T17:34:56.789Z,31.73
2023-04-07T17:37:23.105Z,31.55
2023-04-07T17:39:49.411Z,34.47
2023-04-07T17:42:15.712Z,26.48
2023-04-07T17:44:42.902Z,27.10
2023-04-07T17:47:09.624Z,28.63
2023-04-07T17:49:35.942Z,23.98
2023-04-07T17:52:02.756Z,28.48
2023-04-07T17:54:29.225Z,26.63
2023-04-07T17:56:56.191Z,32.88
2023-04-07T17:59:22.487Z,28.30
2023-04-07T18:01:48.869Z,29.20
2023-04-07T18:04:15.433Z,21.75
2023-04-07T18:06:41.850Z,28.58
2023-04-07T18:09:08.194Z,29.00
2023-04-07T18:11:34.483Z,32.97
2023-04-07T18:14:00.752Z,26.33
2023-04-07T18:16:27.084Z,25.85
2023-04-07T18:18:53.512Z,25.80
2023-04-07T18:21:19.880Z,17.63
2023-04-07T18:23:46.475Z,29.65
2023-04-07T18:26:13.045Z,14.48
2023-04-07T18:28:39.533Z,15.65
2023-04-07T18:31:07.527Z,14.90
2023-04-07T18:33:37.371Z,13.50
2023-04-07T18:36:04.571Z,13.05
2023-04-07T18:38:32.123Z,15.77
2023-04-07T18:40:58.968Z,12.23
2023-04-07T18:43:26.609Z,14.75
2023-04-07T18:45:52.951Z,14.65
2023-04-07T18:48:19.663Z,17.52
2023-04-07T18:50:50.562Z,13.52
2023-04-07T18:53:16.960Z,12.23
2023-04-07T18:55:43.412Z,14.38
2023-04-07T18:58:09.770Z,13.05
2023-04-07T19:00:36.518Z,14.40
2023-04-07T19:03:03.613Z,14.70
2023-04-07T19:05:30.157Z,13.65
2023-04-07T19:07:56.476Z,36.30
2023-04-07T19:10:22.968Z,12.45
2023-04-07T19:12:49.258Z,10.95
2023-04-07T19:15:16.819Z,14.07
2023-04-07T19:17:43.186Z,12.57
2023-04-07T19:20:09.693Z,15.40
2023-04-07T19:22:36.264Z,17.35
2023-04-07T19:25:03.711Z,10.85
2023-04-07T19:27:30.174Z,12.52
2023-04-07T19:29:56.556Z,17.48
2023-04-07T19:32:23.338Z,15.07
2023-04-07T19:34:49.719Z,18.00
2023-04-07T19:37:16.304Z,16.88
2023-04-07T19:39:47.054Z,17.30
2023-04-07T19:42:22.300Z,14.55
2023-04-07T19:44:48.758Z,12.68
2023-04-07T19:47:15.107Z,15.15
2023-04-07T19:49:41.398Z,14.25
2023-04-07T19:52:08.040Z,13.88
2023-04-07T19:54:34.425Z,15.48
2023-04-07T19:57:01.731Z,14.60
2023-04-07T19:59:29.438Z,18.83
2023-04-07T20:01:55.930Z,16.75
2023-04-07T20:04:22.262Z,17.77
2023-04-07T20:06:48.549Z,15.90
2023-04-07T20:09:14.868Z,15.85
2023-04-07T20:11:41.170Z,17.13
2023-04-07T20:14:07.472Z,15.27
2023-04-07T20:16:33.861Z,14.75
2023-04-07T20:19:00.202Z,13.55
2023-04-07T20:21:27.348Z,13.32
2023-04-07T20:23:53.648Z,15.55
2023-04-07T20:26:22.006Z,16.08
2023-04-07T20:28:48.532Z,16.45
2023-04-07T20:31:15.451Z,16.55
2023-04-07T20:33:41.747Z,14.15
2023-04-07T20:36:08.084Z,14.00
2023-04-07T20:38:34.756Z,15.25
2023-04-07T20:41:01.480Z,13.80
2023-04-07T20:43:28.065Z,13.07
2023-04-07T20:45:54.484Z,12.52
2023-04-07T20:48:23.916Z,14.80
2023-04-07T20:50:51.249Z,14.30
2023-04-07T20:53:18.325Z,14.13
2023-04-07T20:55:45.119Z,13.55
2023-04-07T20:58:11.598Z,15.93
2023-04-07T21:00:37.893Z,14.45
2023-04-07T21:03:04.401Z,15.25
2023-04-07T21:05:30.850Z,14.98
2023-04-07T21:07:57.132Z,14.77
2023-04-07T21:10:23.453Z,12.52
2023-04-07T21:12:49.768Z,14.73
2023-04-07T21:15:16.332Z,15.25
2023-04-07T21:17:42.665Z,126.65
2023-04-07T21:20:09.345Z,14.13
2023-04-07T21:22:35.827Z,15.18
2023-04-07T21:25:02.156Z,15.32
2023-04-07T21:27:31.683Z,15.77
2023-04-07T21:29:57.976Z,80.25
2023-04-07T21:32:25.074Z,14.85
2023-04-07T21:34:52.010Z,15.57
2023-04-07T21:37:18.320Z,14.25
2023-04-07T21:39:44.619Z,15.57
2023-04-07T21:42:10.900Z,14.18
2023-04-07T21:44:37.223Z,13.25
2023-04-07T21:47:03.544Z,16.50
2023-04-07T21:49:29.905Z,87.93
2023-04-07T21:51:56.200Z,133.45
2023-04-07T21:54:22.901Z,13.55
2023-04-07T21:56:51.505Z,15.25
2023-04-07T21:59:18.064Z,15.57
2023-04-07T22:01:46.814Z,15.48
2023-04-07T22:04:13.378Z,13.93
2023-04-07T22:06:39.947Z,13.60
2023-04-07T22:11:33.770Z,15.05
2023-04-07T22:14:00.206Z,14.35
2023-04-07T22:16:26.558Z,14.90
2023-04-07T22:18:52.960Z,14.35
2023-04-07T22:21:19.242Z,15.50
2023-04-07T22:23:45.588Z,14.38
2023-04-07T22:26:11.990Z,14.85
2023-04-07T22:28:38.312Z,13.65
2023-04-07T22:31:04.763Z,15.23
2023-04-07T22:33:31.168Z,14.35
2023-04-07T22:35:57.561Z,14.02
2023-04-07T22:38:24.008Z,14.18
2023-04-07T22:40:50.485Z,14.57
2023-04-07T22:43:17.167Z,15.40
2023-04-07T22:45:43.558Z,14.40
2023-04-07T22:48:10.012Z,15.75
2023-04-07T22:50:36.573Z,14.95
2023-04-07T22:53:03.001Z,13.80
2023-04-07T22:55:29.603Z,14.45
2023-04-07T22:57:56.056Z,14.95
2023-04-07T23:00:22.721Z,15.95
2023-04-07T23:02:49.268Z,16.05
2023-04-07T23:05:15.877Z,16.73
2023-04-07T23:07:42.226Z,14.60
2023-04-07T23:10:08.837Z,14.32
2023-04-07T23:12:35.165Z,15.70
2023-04-07T23:15:01.480Z,37.03
2023-04-07T23:17:27.836Z,15.40
2023-04-07T23:19:54.225Z,15.13
2023-04-07T23:22:20.875Z,16.13
2023-04-07T23:24:47.308Z,18.40
2023-04-07T23:27:13.606Z,17.23
2023-04-07T23:29:40.316Z,17.30
2023-04-07T23:32:06.785Z,16.70
2023-04-07T23:34:33.106Z,17.25
2023-04-07T23:36:59.404Z,14.55
2023-04-07T23:39:25.794Z,17.73
2023-04-07T23:41:52.176Z,19.23
2023-04-07T23:44:18.486Z,19.35
2023-04-07T23:46:44.794Z,19.45
2023-04-07T23:49:11.119Z,18.23
2023-04-07T23:51:37.403Z,18.77
2023-04-07T23:54:03.772Z,18.05
2023-04-07T23:56:30.113Z,20.40
2023-04-07T23:58:56.396Z,19.48
